Time;durP1;ratioP1;P1;durP2;ratioP2;P2;SDS_P1;SDS_P2;PMS_P1;PMS_P2;Temp;Humidity;BMP_temperature;BMP_pressure;BME280_temperature;BME280_humidity;BME280_pressure;Samples;Min_cycle;Max_cycle;Signal;HPM_P1;HPM_P2
2021/04/14 00:02:04;;;;;;;6.28;4.35;;;;;;;1.90;100.00;103255.56;6185144;23;20005;-85
2021/04/14 00:04:29;;;;;;;8.95;4.43;;;;;;;1.73;100.00;103247.25;6185830;23;20017;-85
2021/04/14 00:07:02;;;;;;;9.80;4.93;;;;;;;1.87;100.00;103247.66;6185935;23;20005;-85
2021/04/14 00:09:29;;;;;;;6.82;4.80;;;;;;;1.91;100.00;103248.63;6197027;23;20005;-85
2021/04/14 00:11:56;;;;;;;10.13;5.22;;;;;;;1.93;100.00;103249.56;6167852;23;20031;-85
2021/04/14 00:14:21;;;;;;;8.45;5.03;;;;;;;1.87;100.00;103242.44;6187441;23;20032;-84
2021/04/14 00:16:47;;;;;;;8.38;5.00;;;;;;;1.72;100.00;103242.88;6191940;23;20422;-84
2021/04/14 00:19:12;;;;;;;10.43;4.88;;;;;;;1.87;100.00;103252.88;6187469;23;20009;-84
2021/04/14 00:21:37;;;;;;;9.00;4.55;;;;;;;2.06;100.00;103251.72;6186313;23;20379;-84
2021/04/14 00:24:03;;;;;;;10.52;5.40;;;;;;;2.11;100.00;103249.19;6185678;23;20099;-84
2021/04/14 00:26:28;;;;;;;9.52;4.80;;;;;;;2.20;100.00;103249.47;6187704;23;20005;-85
2021/04/14 00:28:54;;;;;;;10.40;5.72;;;;;;;2.27;100.00;103254.03;6185564;23;20024;-85
2021/04/14 00:31:34;;;;;;;10.35;5.78;;;;;;;2.23;100.00;103247.84;6184070;23;20081;-85
2021/04/14 00:34:00;;;;;;;7.18;4.40;;;;;;;2.40;100.00;103253.53;6185444;23;20498;-85
2021/04/14 00:36:28;;;;;;;7.10;4.75;;;;;;;2.40;100.00;103236.97;6186908;23;20011;-85
2021/04/14 00:38:54;;;;;;;8.18;4.28;;;;;;;2.52;100.00;103242.56;6194888;23;20044;-85
2021/04/14 00:41:19;;;;;;;8.07;4.50;;;;;;;2.51;100.00;103222.50;6206701;23;20025;-84
2021/04/14 00:43:44;;;;;;;10.73;5.13;;;;;;;2.48;100.00;103212.88;6192399;23;20453;-85
2021/04/14 00:46:10;;;;;;;7.10;4.57;;;;;;;2.61;100.00;103219.31;6190195;23;20028;-85
2021/04/14 00:48:35;;;;;;;6.68;4.35;;;;;;;2.51;100.00;103204.22;6192420;23;20013;-85
2021/04/14 00:51:04;;;;;;;8.55;4.40;;;;;;;2.55;100.00;103220.00;6193871;23;20012;-85
2021/04/14 00:53:29;;;;;;;8.48;4.25;;;;;;;2.46;100.00;103234.53;6193824;23;20001;-85
2021/04/14 00:55:55;;;;;;;6.90;4.47;;;;;;;2.56;100.00;103234.84;6196678;23;20040;-85
2021/04/14 00:58:20;;;;;;;8.05;5.38;;;;;;;2.52;100.00;103234.72;6194120;23;20036;-84
2021/04/14 01:00:51;;;;;;;5.63;4.13;;;;;;;2.39;100.00;103237.84;6192186;23;20296;-84
2021/04/14 01:03:23;;;;;;;8.48;5.03;;;;;;;2.34;100.00;103227.25;6192250;23;20714;-84
2021/04/14 01:05:51;;;;;;;7.30;4.82;;;;;;;2.36;100.00;103228.22;6192834;23;20060;-84
2021/04/14 01:08:16;;;;;;;9.50;5.10;;;;;;;2.19;100.00;103227.72;6191000;23;20016;-84
2021/04/14 01:10:42;;;;;;;7.85;4.90;;;;;;;1.95;100.00;103211.38;6187489;23;20009;-85
2021/04/14 01:13:08;;;;;;;10.68;4.88;;;;;;;2.00;100.00;103213.25;6190732;23;20008;-85
2021/04/14 01:15:36;;;;;;;7.20;5.25;;;;;;;2.14;100.00;103216.28;6194084;23;20004;-85
2021/04/14 01:18:03;;;;;;;11.13;5.15;;;;;;;2.24;100.00;103218.28;6191666;23;20000;-84
2021/04/14 01:20:29;;;;;;;8.60;5.25;;;;;;;2.29;100.00;103200.16;6189786;23;20037;-84
2021/04/14 01:22:54;;;;;;;12.18;6.07;;;;;;;2.23;100.00;103224.38;6189235;23;20339;-84
2021/04/14 01:25:23;;;;;;;5.88;4.50;;;;;;;2.27;100.00;103222.72;6189608;23;20008;-84
2021/04/14 01:27:48;;;;;;;8.93;5.60;;;;;;;2.14;100.00;103220.59;6191609;23;20005;-84
2021/04/14 01:30:21;;;;;;;9.77;5.25;;;;;;;2.08;100.00;103219.59;6196145;23;20039;-85
2021/04/14 01:32:46;;;;;;;8.23;5.05;;;;;;;2.18;100.00;103219.84;6191871;23;20371;-83
2021/04/14 01:35:13;;;;;;;10.52;5.20;;;;;;;2.45;100.00;103219.72;6193038;23;20485;-83
2021/04/14 01:37:40;;;;;;;8.52;5.03;;;;;;;2.39;100.00;103215.22;6193911;23;20000;-83
2021/04/14 01:40:07;;;;;;;12.07;5.72;;;;;;;2.57;100.00;103213.13;6187532;23;20360;-84
2021/04/14 01:42:33;;;;;;;8.52;5.50;;;;;;;2.79;100.00;103221.50;6187831;23;20550;-84
2021/04/14 01:44:58;;;;;;;10.88;5.97;;;;;;;2.89;100.00;103220.00;6187906;23;20012;-84
2021/04/14 01:47:23;;;;;;;11.32;5.07;;;;;;;2.72;100.00;103223.09;6187010;23;20019;-84
2021/04/14 01:49:48;;;;;;;9.18;4.72;;;;;;;2.70;100.00;103221.25;6186039;23;20016;-83
2021/04/14 01:52:14;;;;;;;8.07;4.75;;;;;;;2.68;100.00;103226.44;6186573;23;20071;-85
2021/04/14 01:54:39;;;;;;;8.77;5.05;;;;;;;2.69;100.00;103228.22;6185211;23;20041;-85
2021/04/14 01:57:06;;;;;;;9.65;5.55;;;;;;;2.72;100.00;103223.09;6184899;23;20005;-85
2021/04/14 01:59:31;;;;;;;10.45;5.43;;;;;;;2.75;100.00;103211.81;6189954;23;20327;-85
2021/04/14 02:01:56;;;;;;;9.52;5.93;;;;;;;2.73;100.00;103224.84;6189923;23;20012;-86
2021/04/14 02:04:22;;;;;;;10.18;5.15;;;;;;;2.73;100.00;103209.16;6188963;23;20009;-85
2021/04/14 02:06:48;;;;;;;7.65;5.05;;;;;;;2.72;100.00;103210.03;6190438;23;19997;-85
2021/04/14 02:09:13;;;;;;;8.73;5.57;;;;;;;2.74;100.00;103221.38;6191784;23;20040;-86
2021/04/14 02:11:39;;;;;;;9.23;5.55;;;;;;;2.71;100.00;103226.53;6191327;23;20005;-86
2021/04/14 02:14:04;;;;;;;10.95;6.20;;;;;;;2.77;100.00;103216.25;6191397;23;20004;-85
2021/04/14 02:16:30;;;;;;;12.63;5.10;;;;;;;2.60;100.00;103217.50;6192081;23;20423;-86
2021/04/14 02:18:55;;;;;;;8.45;5.22;;;;;;;2.58;100.00;103209.66;6190400;23;20016;-86
2021/04/14 02:21:22;;;;;;;9.00;5.50;;;;;;;2.76;100.00;103219.72;6189461;23;20016;-85
2021/04/14 02:23:49;;;;;;;9.20;5.18;;;;;;;2.75;100.00;103217.03;6189915;23;20357;-86
2021/04/14 02:26:18;;;;;;;10.63;6.03;;;;;;;2.64;100.00;103218.50;6190626;23;20017;-85
2021/04/14 02:28:47;;;;;;;8.70;5.72;;;;;;;2.60;100.00;103215.78;6189962;23;20219;-86
2021/04/14 02:31:15;;;;;;;10.10;5.72;;;;;;;2.58;100.00;103216.59;6187267;23;20005;-86
2021/04/14 02:33:41;;;;;;;20.40;6.63;;;;;;;2.51;100.00;103215.56;6190016;23;20331;-86
2021/04/14 02:36:07;;;;;;;11.75;6.28;;;;;;;2.42;100.00;103217.06;6187706;23;20011;-85
2021/04/14 02:38:33;;;;;;;9.70;5.93;;;;;;;2.39;100.00;103209.13;6188162;23;20008;-85
2021/04/14 02:40:58;;;;;;;10.48;5.45;;;;;;;2.23;100.00;103211.31;6183918;23;20346;-85
2021/04/14 02:43:24;;;;;;;10.40;5.88;;;;;;;2.24;100.00;103207.84;6183795;23;20091;-85
2021/04/14 02:45:49;;;;;;;16.55;7.30;;;;;;;2.19;100.00;103206.84;6185950;23;20038;-85
2021/04/14 02:48:15;;;;;;;8.20;5.88;;;;;;;2.01;100.00;103202.00;6185024;23;20005;-85
2021/04/14 02:50:40;;;;;;;7.75;5.55;;;;;;;1.90;100.00;103198.19;6184637;23;20013;-85
2021/04/14 02:53:07;;;;;;;9.88;6.13;;;;;;;2.11;100.00;103208.38;6184663;23;20048;-84
2021/04/14 02:55:34;;;;;;;9.32;5.90;;;;;;;2.08;100.00;103213.50;6183736;23;20028;-83
2021/04/14 02:57:59;;;;;;;10.43;6.75;;;;;;;2.06;100.00;103216.06;6185050;23;20001;-83
2021/04/14 03:00:26;;;;;;;10.98;6.30;;;;;;;1.96;100.00;103202.72;6182298;23;20007;-83
2021/04/14 03:02:52;;;;;;;8.57;5.97;;;;;;;1.89;100.00;103211.19;6185034;23;20370;-84
2021/04/14 03:05:21;;;;;;;9.45;5.82;;;;;;;1.75;100.00;103211.66;6184459;23;20005;-84
2021/04/14 03:07:46;;;;;;;11.20;6.75;;;;;;;1.62;100.00;103201.72;6184538;23;20031;-84
2021/04/14 03:10:17;;;;;;;10.77;5.75;;;;;;;1.64;100.00;103207.84;6183277;23;20040;-84
2021/04/14 03:12:42;;;;;;;9.70;6.10;;;;;;;1.73;100.00;103202.91;6182827;23;20050;-84
2021/04/14 03:15:10;;;;;;;9.32;6.18;;;;;;;1.60;100.00;103199.91;6184045;23;20422;-84
2021/04/14 03:17:35;;;;;;;9.57;6.45;;;;;;;1.37;100.00;103200.09;6186966;23;20012;-83
2021/04/14 03:20:03;;;;;;;12.85;6.63;;;;;;;1.34;100.00;103201.72;6189924;23;20013;-84
2021/04/14 03:22:29;;;;;;;13.48;7.60;;;;;;;1.31;100.00;103199.91;6187053;23;20111;-83
2021/04/14 03:24:54;;;;;;;15.75;9.32;;;;;;;1.28;100.00;103192.88;6187870;23;20036;-83
2021/04/14 03:27:19;;;;;;;12.00;7.38;;;;;;;1.21;100.00;103179.63;6184918;23;20008;-82
2021/04/14 03:29:44;;;;;;;16.25;7.45;;;;;;;1.35;100.00;103183.50;6183486;23;20143;-83
2021/04/14 03:32:10;;;;;;;10.88;7.60;;;;;;;1.58;100.00;103196.38;6182485;23;20012;-82
2021/04/14 03:34:35;;;;;;;12.70;7.05;;;;;;;1.34;100.00;103178.25;6185345;23;20005;-84
2021/04/14 03:37:00;;;;;;;10.38;7.80;;;;;;;1.35;100.00;103182.63;6185723;23;20005;-84
2021/04/14 03:39:26;;;;;;;9.90;7.13;;;;;;;1.46;100.00;103187.34;6187508;23;20059;-84
2021/04/14 03:41:51;;;;;;;12.23;6.60;;;;;;;1.49;100.00;103168.28;6188135;23;20013;-84
2021/04/14 03:44:16;;;;;;;10.07;6.72;;;;;;;1.62;100.00;103180.00;6190126;23;20083;-84
2021/04/14 03:46:42;;;;;;;12.55;6.72;;;;;;;1.73;100.00;103184.66;6188255;23;20386;-84
2021/04/14 03:49:07;;;;;;;10.02;6.38;;;;;;;1.77;100.00;103183.03;6189159;23;20346;-85
2021/04/14 03:51:33;;;;;;;14.95;6.90;;;;;;;1.80;100.00;103189.22;6188963;23;20450;-84
2021/04/14 03:53:58;;;;;;;14.80;7.05;;;;;;;2.04;100.00;103190.75;6192691;23;20409;-85
2021/04/14 03:56:30;;;;;;;12.82;7.57;;;;;;;2.05;100.00;103185.56;6196816;23;20637;-84
2021/04/14 03:58:55;;;;;;;10.68;6.18;;;;;;;1.94;100.00;103181.78;6191602;23;20728;-85
2021/04/14 04:01:26;;;;;;;11.75;7.28;;;;;;;1.88;100.00;103186.84;6185664;23;20066;-85
2021/04/14 04:03:52;;;;;;;11.68;6.93;;;;;;;1.94;100.00;103186.13;6188627;23;20358;-85
2021/04/14 04:06:18;;;;;;;12.23;6.07;;;;;;;1.87;100.00;103185.06;6187310;23;20061;-85
2021/04/14 04:08:43;;;;;;;10.10;6.18;;;;;;;1.74;100.00;103164.69;6190587;23;20069;-85
2021/04/14 04:11:09;;;;;;;12.95;6.97;;;;;;;1.77;100.00;103178.72;6194475;23;20427;-85
2021/04/14 04:13:35;;;;;;;15.95;7.18;;;;;;;1.80;100.00;103185.72;6193772;23;20001;-85
2021/04/14 04:16:02;;;;;;;13.18;7.40;;;;;;;1.76;100.00;103189.09;6194257;23;20071;-85
2021/04/14 04:18:28;;;;;;;9.32;5.95;;;;;;;1.90;100.00;103187.75;6198922;23;20069;-85
2021/04/14 04:20:54;;;;;;;12.30;7.30;;;;;;;2.03;100.00;103184.66;6201198;23;20009;-85
2021/04/14 04:23:20;;;;;;;20.73;7.07;;;;;;;1.95;100.00;103191.38;6199850;23;20013;-86
2021/04/14 04:25:45;;;;;;;15.25;7.05;;;;;;;1.96;100.00;103193.19;6199546;23;20004;-85
2021/04/14 04:28:11;;;;;;;14.93;7.25;;;;;;;2.01;100.00;103175.06;6192867;23;20001;-85
2021/04/14 04:30:37;;;;;;;21.70;7.47;;;;;;;2.06;100.00;103195.19;6189931;23;20025;-84
2021/04/14 04:33:04;;;;;;;13.70;7.57;;;;;;;2.07;100.00;103180.44;6187891;23;20005;-83
2021/04/14 04:35:30;;;;;;;16.10;8.45;;;;;;;1.98;100.00;103175.84;6187756;23;20005;-83
2021/04/14 04:37:56;;;;;;;16.70;6.55;;;;;;;1.93;100.00;103181.75;6139182;23;20072;-83
2021/04/14 04:40:25;;;;;;;13.35;7.18;;;;;;;2.02;100.00;103190.72;6193402;23;20005;-84
2021/04/14 04:42:50;;;;;;;13.82;6.45;;;;;;;1.97;100.00;103181.00;6185649;23;20009;-84
2021/04/14 04:45:18;;;;;;;18.55;8.77;;;;;;;1.96;100.00;103185.34;6184831;23;20112;-85
2021/04/14 04:47:44;;;;;;;17.77;6.85;;;;;;;1.95;100.00;103183.56;6185973;23;20226;-84
2021/04/14 04:50:11;;;;;;;13.02;7.60;;;;;;;1.75;100.00;103189.91;6192312;23;20009;-84
2021/04/14 04:52:36;;;;;;;21.80;7.68;;;;;;;1.68;100.00;103180.16;6189578;23;20397;-85
2021/04/14 04:55:02;;;;;;;16.85;8.20;;;;;;;1.68;100.00;103186.25;6192089;23;20005;-86
2021/04/14 04:57:27;;;;;;;15.23;7.20;;;;;;;1.61;100.00;103188.63;6191503;23;20009;-85
2021/04/14 04:59:53;;;;;;;11.60;7.43;;;;;;;1.58;100.00;103185.94;6188850;23;20005;-84
2021/04/14 05:02:18;;;;;;;16.73;7.75;;;;;;;1.54;100.00;103182.34;6186362;23;19997;-85
2021/04/14 05:04:44;;;;;;;14.00;7.25;;;;;;;1.63;100.00;103169.59;6190039;23;20013;-83
2021/04/14 05:07:10;;;;;;;25.42;11.38;;;;;;;1.64;100.00;103186.13;6187210;23;20004;-84
2021/04/14 05:09:35;;;;;;;17.98;8.93;;;;;;;1.57;100.00;103184.19;6190523;23;20005;-85
2021/04/14 05:12:00;;;;;;;16.67;8.32;;;;;;;1.54;100.00;103187.56;6191720;23;20005;-85
2021/04/14 05:14:26;;;;;;;14.65;7.68;;;;;;;1.49;100.00;103189.16;6192630;23;20174;-84
2021/04/14 05:16:51;;;;;;;14.63;7.65;;;;;;;1.52;100.00;103191.84;6195867;23;20000;-84
2021/04/14 05:19:17;;;;;;;15.07;7.32;;;;;;;1.62;100.00;103180.88;6163340;23;20025;-84
2021/04/14 05:21:42;;;;;;;19.75;6.93;;;;;;;1.70;100.00;103183.69;6191928;23;20004;-85
2021/04/14 05:24:09;;;;;;;16.77;6.45;;;;;;;1.90;100.00;103192.09;6203922;23;20001;-85
2021/04/14 05:26:35;;;;;;;10.95;6.63;;;;;;;1.97;100.00;103202.75;6204392;23;20009;-84
2021/04/14 05:29:01;;;;;;;16.30;7.38;;;;;;;2.05;100.00;103193.41;6190327;23;20009;-83
2021/04/14 05:31:29;;;;;;;18.20;7.47;;;;;;;2.07;100.00;103183.91;6187301;23;20016;-84
2021/04/14 05:33:59;;;;;;;13.80;7.38;;;;;;;2.18;100.00;103206.81;6187710;23;20419;-84
2021/04/14 05:36:24;;;;;;;15.93;7.55;;;;;;;2.24;100.00;103210.47;6186728;23;20009;-85
2021/04/14 05:38:50;;;;;;;17.10;8.05;;;;;;;2.18;100.00;103193.75;6187433;23;20004;-85
2021/04/14 05:41:16;;;;;;;11.73;7.10;;;;;;;2.28;100.00;103214.06;6185458;23;20032;-85
2021/04/14 05:43:41;;;;;;;15.45;7.65;;;;;;;2.27;100.00;103210.56;6185134;23;20595;-85
2021/04/14 05:46:10;;;;;;;14.18;8.00;;;;;;;2.29;100.00;103219.31;6184135;23;20378;-85
2021/04/14 05:48:37;;;;;;;23.13;12.63;;;;;;;2.32;100.00;103216.78;6182800;23;20375;-85
2021/04/14 05:51:04;;;;;;;27.05;14.10;;;;;;;2.38;100.00;103223.91;6177612;23;20059;-85
2021/04/14 05:53:31;;;;;;;21.55;11.50;;;;;;;2.56;100.00;103219.19;6181350;23;20409;-85
2021/04/14 05:55:57;;;;;;;15.70;9.73;;;;;;;2.47;100.00;103213.72;6193020;23;20005;-85
2021/04/14 05:58:22;;;;;;;17.95;8.70;;;;;;;2.52;100.00;103206.00;6191631;23;20005;-85
2021/04/14 06:00:48;;;;;;;18.25;9.10;;;;;;;2.75;100.00;103217.03;6183921;23;20063;-85
2021/04/14 06:03:13;;;;;;;19.15;13.50;;;;;;;2.88;100.00;103206.06;6187693;23;20029;-85
2021/04/14 06:05:38;;;;;;;19.83;9.07;;;;;;;3.17;100.00;103212.00;6194015;23;20340;-85
2021/04/14 06:08:04;;;;;;;19.73;8.88;;;;;;;3.43;100.00;103228.31;6185889;23;20012;-85
2021/04/14 06:10:29;;;;;;;13.55;6.82;;;;;;;3.62;100.00;103229.59;6176534;23;20697;-85
2021/04/14 06:12:56;;;;;;;23.75;8.27;;;;;;;3.45;100.00;103210.91;6147012;23;20570;-85
2021/04/14 06:15:30;;;;;;;20.52;8.45;;;;;;;3.59;100.00;103226.91;6159591;23;20456;-84
2021/04/14 06:17:57;;;;;;;15.32;9.13;;;;;;;3.71;100.00;103234.13;6179137;23;20197;-83
2021/04/14 06:20:26;;;;;;;27.15;8.90;;;;;;;3.88;100.00;103238.91;6159713;23;20020;-84
2021/04/14 06:22:52;;;;;;;15.70;7.07;;;;;;;4.08;100.00;103235.81;6188133;23;20001;-85
2021/04/14 06:25:29;;;;;;;20.05;6.78;;;;;;;4.36;100.00;103222.41;6167786;23;20083;-84
2021/04/14 06:28:04;;;;;;;14.48;6.20;;;;;;;4.50;100.00;103230.53;6173605;23;20024;-83
2021/04/14 06:30:31;;;;;;;20.73;6.80;;;;;;;4.51;100.00;103242.78;6157626;23;20015;-81
2021/04/14 06:32:56;;;;;;;18.17;6.35;;;;;;;4.45;100.00;103242.66;6158363;23;20059;-83
2021/04/14 06:35:23;;;;;;;16.60;6.28;;;;;;;4.48;100.00;103229.63;6186192;23;20009;-84
2021/04/14 06:37:50;;;;;;;13.38;6.05;;;;;;;4.61;100.00;103243.81;6150982;23;20426;-81
2021/04/14 06:43:17;;;;;;;31.80;7.78;;;;;;;4.79;100.00;103244.16;6188999;23;20111;-83
2021/04/14 06:46:07;;;;;;;15.18;6.75;;;;;;;4.86;100.00;103250.41;6161198;23;20723;-84
2021/04/14 06:48:41;;;;;;;12.05;6.53;;;;;;;4.77;100.00;103251.13;6190960;23;20008;-84
2021/04/14 06:51:16;;;;;;;10.90;5.20;;;;;;;4.73;100.00;103251.94;6157775;23;20009;-82
2021/04/14 06:54:10;;;;;;;15.73;6.47;;;;;;;4.67;100.00;103244.84;6182968;23;20001;-82
2021/04/14 06:57:04;;;;;;;11.18;5.30;;;;;;;4.80;100.00;103255.53;6187136;23;20016;-82
2021/04/14 06:59:33;;;;;;;11.57;5.82;;;;;;;4.97;100.00;103250.56;6191484;23;20028;-83
2021/04/14 07:02:15;;;;;;;11.95;6.28;;;;;;;5.10;100.00;103248.19;6157810;23;20013;-84
2021/04/14 07:04:56;;;;;;;10.40;6.35;;;;;;;5.30;100.00;103251.13;6161375;23;19997;-85
2021/04/14 07:07:25;;;;;;;16.27;6.13;;;;;;;5.30;100.00;103237.16;6157231;23;20037;-83
2021/04/14 07:09:54;;;;;;;12.77;7.10;;;;;;;5.59;100.00;103248.09;6158759;23;20005;-83
2021/04/14 07:12:22;;;;;;;16.55;6.90;;;;;;;5.70;100.00;103247.38;6158376;23;20422;-82
2021/04/14 07:14:52;;;;;;;13.27;7.20;;;;;;;5.89;100.00;103251.13;6157668;23;20346;-81
2021/04/14 07:17:43;;;;;;;11.70;7.45;;;;;;;6.17;100.00;103249.75;6157745;23;20020;-81
2021/04/14 07:20:52;;;;;;;15.15;6.95;;;;;;;6.32;100.00;103249.06;6152829;23;20024;-82
2021/04/14 07:23:51;;;;;;;17.73;7.63;;;;;;;6.45;100.00;103239.59;6152539;23;20005;-84
2021/04/14 07:26:24;;;;;;;16.45;9.57;;;;;;;6.78;100.00;103244.31;6155644;23;20002;-83
2021/04/14 07:29:09;;;;;;;11.30;7.38;;;;;;;6.97;100.00;103232.19;6154173;23;19998;-84
2021/04/14 07:31:35;;;;;;;12.45;8.27;;;;;;;6.89;100.00;103226.88;6152592;23;20014;-82
2021/04/14 07:34:26;;;;;;;14.60;8.13;;;;;;;7.27;100.00;103229.81;6152030;23;20062;-82
2021/04/14 07:37:14;;;;;;;16.20;7.60;;;;;;;7.14;100.00;103230.59;6155120;23;20435;-83
2021/04/14 07:40:16;;;;;;;12.95;7.60;;;;;;;6.88;100.00;103240.03;6155903;23;20002;-83
2021/04/14 07:43:12;;;;;;;12.40;6.78;;;;;;;6.75;100.00;103232.00;6155206;23;20012;-84
2021/04/14 07:45:38;;;;;;;11.93;6.93;;;;;;;6.98;100.00;103229.59;6154371;23;20005;-84
2021/04/14 07:48:13;;;;;;;12.30;7.40;;;;;;;7.20;100.00;103225.38;6158451;23;20005;-85
2021/04/14 07:50:45;;;;;;;10.60;6.38;;;;;;;6.95;100.00;103223.44;6155327;23;20010;-84
2021/04/14 07:53:36;;;;;;;12.48;7.22;;;;;;;6.55;100.00;103228.31;6152887;23;20024;-85
2021/04/14 07:56:09;;;;;;;10.73;6.50;;;;;;;6.31;100.00;103246.44;6173028;23;20013;-80
2021/04/14 07:58:37;;;;;;;12.13;6.78;;;;;;;6.55;100.00;103233.56;6172210;23;20064;-83
2021/04/14 08:01:37;;;;;;;13.27;7.13;;;;;;;6.70;100.00;103238.09;6169585;23;20012;-83
2021/04/14 08:04:31;;;;;;;13.82;7.18;;;;;;;6.89;100.00;103231.28;6071635;23;20712;-84
2021/04/14 08:07:11;;;;;;;13.10;7.28;;;;;;;6.87;100.00;103225.97;5962378;24;20076;-82
2021/04/14 08:10:00;;;;;;;11.98;7.50;;;;;;;7.31;100.00;103235.97;5981257;24;20016;-85
2021/04/14 08:12:30;;;;;;;10.55;5.38;;;;;;;7.11;100.00;103232.31;5982936;24;20016;-83
2021/04/14 08:15:25;;;;;;;13.65;6.65;;;;;;;7.81;100.00;103238.06;5979786;24;20008;-83
2021/04/14 08:17:52;;;;;;;15.43;6.93;;;;;;;8.37;100.00;103229.53;5976939;24;20071;-83
2021/04/14 08:20:49;;;;;;;13.55;6.03;;;;;;;7.88;100.00;103231.97;5978442;24;20031;-83
2021/04/14 08:26:55;;;;;;;13.93;6.60;;;;;;;8.48;100.00;103235.72;5933742;24;20024;-83
2021/04/14 08:29:26;;;;;;;9.38;5.47;;;;;;;8.09;100.00;103232.94;5911836;24;20010;-83
2021/04/14 08:31:53;;;;;;;16.05;8.20;;;;;;;8.55;100.00;103236.59;5945049;24;20481;-83
2021/04/14 08:34:32;;;;;;;13.07;6.05;;;;;;;9.05;100.00;103236.66;5979326;24;20012;-81
2021/04/14 08:37:34;;;;;;;10.25;6.10;;;;;;;9.38;100.00;103231.34;5980330;24;20065;-84
2021/04/14 08:40:49;;;;;;;10.98;5.10;;;;;;;8.97;91.28;103229.59;6008410;23;20021;-84
2021/04/14 08:43:44;;;;;;;14.38;5.45;;;;;;;9.32;91.28;103232.22;6016525;23;20097;-84
2021/04/14 08:46:44;;;;;;;8.35;5.50;;;;;;;9.29;92.40;103232.25;6038251;23;20018;-86
2021/04/14 08:49:26;;;;;;;10.38;5.32;;;;;;;9.58;92.87;103232.19;6064450;23;20094;-83
2021/04/14 08:51:53;;;;;;;10.57;5.68;;;;;;;9.62;94.63;103236.56;6041668;23;20453;-84
2021/04/14 08:54:25;;;;;;;13.35;6.15;;;;;;;9.82;93.48;103237.41;6041455;23;20010;-81
2021/04/14 08:56:51;;;;;;;10.40;5.93;;;;;;;9.02;94.22;103225.22;6039608;23;20007;-81
2021/04/14 08:59:17;;;;;;;13.00;6.15;;;;;;;9.06;94.55;103238.41;6067517;23;20007;-81
2021/04/14 09:01:43;;;;;;;7.85;4.70;;;;;;;9.26;94.78;103226.97;6097078;23;20064;-86
2021/04/14 09:04:32;;;;;;;10.20;6.18;;;;;;;9.37;94.81;103234.88;6156382;23;20005;-83
2021/04/14 09:07:06;;;;;;;11.90;6.13;;;;;;;9.57;96.03;103238.34;6155015;23;20053;-82
2021/04/14 09:09:53;;;;;;;18.05;6.35;;;;;;;9.93;95.82;103236.47;6160976;23;20017;-82
2021/04/14 09:12:36;;;;;;;12.57;5.90;;;;;;;9.97;95.13;103227.66;6158046;23;19998;-83
2021/04/14 09:15:07;;;;;;;10.30;6.10;;;;;;;9.85;95.50;103237.41;6164315;23;20005;-84
2021/04/14 09:17:32;;;;;;;10.80;6.13;;;;;;;9.93;94.88;103234.72;6164828;23;20009;-83
2021/04/14 09:20:15;;;;;;;11.05;6.57;;;;;;;9.91;96.17;103227.69;6162714;23;20022;-84
2021/04/14 09:22:40;;;;;;;10.70;5.97;;;;;;;9.76;94.75;103233.91;6160065;23;20331;-83
2021/04/14 09:25:06;;;;;;;12.00;5.80;;;;;;;9.71;93.09;103230.41;6161139;23;20013;-83
2021/04/14 09:27:37;;;;;;;13.65;6.18;;;;;;;10.02;94.19;103231.16;6161595;23;20478;-85
2021/04/14 09:30:58;;;;;;;9.63;6.30;;;;;;;9.95;93.89;103227.69;6158463;23;20067;-83
2021/04/14 09:33:37;;;;;;;10.57;6.20;;;;;;;9.75;95.12;103233.03;6047593;23;20105;-84
2021/04/14 09:36:08;;;;;;;12.75;8.32;;;;;;;9.74;98.08;103231.28;6076213;23;20029;-83
2021/04/14 09:38:51;;;;;;;14.07;8.90;;;;;;;9.62;100.00;103233.94;6071767;23;20006;-82
2021/04/14 09:41:33;;;;;;;18.98;11.65;;;;;;;10.06;100.00;103227.63;6095296;23;20011;-83
2021/04/14 09:44:31;;;;;;;13.15;9.60;;;;;;;10.48;100.00;103223.91;6095378;23;20018;-82
2021/04/14 09:47:23;;;;;;;18.23;9.70;;;;;;;10.18;100.00;103222.28;6096274;23;20094;-82
2021/04/14 09:49:51;;;;;;;16.10;9.48;;;;;;;10.29;98.89;103222.25;6096848;23;20017;-82
2021/04/14 09:52:28;;;;;;;16.92;10.68;;;;;;;10.08;96.68;103223.22;6097242;23;20010;-80
2021/04/14 09:55:25;;;;;;;19.67;9.80;;;;;;;9.98;98.30;103226.78;6074234;23;20093;-85
2021/04/14 09:57:51;;;;;;;14.38;9.70;;;;;;;9.66;99.07;103205.78;6094923;23;20013;-83
2021/04/14 10:00:22;;;;;;;18.52;10.57;;;;;;;9.55;98.49;103219.88;6093778;23;20046;-82
2021/04/14 10:02:51;;;;;;;15.00;10.20;;;;;;;9.64;97.78;103228.66;6071036;23;20013;-81
2021/04/14 10:05:17;;;;;;;17.88;9.77;;;;;;;10.12;96.18;103223.19;6070446;23;20025;-81
2021/04/14 10:07:45;;;;;;;15.98;9.82;;;;;;;9.94;96.30;103220.66;6072985;23;20010;-83
2021/04/14 10:10:10;;;;;;;29.60;11.52;;;;;;;8.94;100.00;103217.31;6158328;23;20013;-84
2021/04/14 10:12:36;;;;;;;14.93;10.52;;;;;;;10.31;97.83;103213.44;6155723;23;20010;-84
2021/04/14 10:15:04;;;;;;;16.70;10.20;;;;;;;11.20;91.85;103212.78;6154621;23;20013;-84
2021/04/14 10:17:31;;;;;;;16.88;9.52;;;;;;;11.78;88.33;103204.19;6150636;23;20009;-83
2021/04/14 10:20:13;;;;;;;16.73;9.52;;;;;;;12.61;85.97;103198.69;6152733;23;20183;-84
2021/04/14 10:22:43;;;;;;;16.45;9.60;;;;;;;13.62;74.65;103204.91;6168769;23;20029;-83
2021/04/14 10:25:16;;;;;;;14.45;9.60;;;;;;;12.87;68.29;103203.56;6167263;23;20062;-83
2021/04/14 10:27:42;;;;;;;15.98;9.30;;;;;;;12.69;68.24;103199.44;6163717;23;20009;-83
2021/04/14 10:30:16;;;;;;;13.05;8.30;;;;;;;11.72;70.06;103200.75;6160090;23;20020;-83
2021/04/14 10:32:42;;;;;;;13.48;9.23;;;;;;;11.43;71.83;103201.06;6157181;23;20020;-83
2021/04/14 10:35:19;;;;;;;14.40;8.05;;;;;;;11.41;72.22;103199.34;6160754;23;20002;-83
2021/04/14 10:37:51;;;;;;;11.82;8.75;;;;;;;11.19;72.52;103195.13;6154892;23;20320;-84
2021/04/14 10:40:38;;;;;;;13.38;7.57;;;;;;;10.56;71.04;103195.66;6154440;23;20010;-83
2021/04/14 10:43:19;;;;;;;13.75;7.10;;;;;;;10.18;66.82;103198.50;6154825;23;20058;-84
2021/04/14 10:45:58;;;;;;;17.77;8.07;;;;;;;10.61;70.93;103182.41;6156426;23;20013;-83
2021/04/14 10:48:26;;;;;;;12.52;7.53;;;;;;;11.23;68.96;103193.34;6158413;23;20009;-82
2021/04/14 10:51:02;;;;;;;13.57;7.63;;;;;;;12.44;63.73;103187.44;6161052;23;20002;-83
2021/04/14 10:53:32;;;;;;;13.85;6.97;;;;;;;14.02;43.48;103184.59;6159065;23;20005;-83
2021/04/14 10:55:58;;;;;;;11.23;6.53;;;;;;;13.06;46.04;103188.22;6159546;23;20010;-83
2021/04/14 10:58:25;;;;;;;14.43;8.30;;;;;;;14.24;43.80;103183.22;6162746;23;20339;-83
2021/04/14 11:00:51;;;;;;;10.98;8.20;;;;;;;15.06;40.96;103179.47;6161980;23;20001;-83
2021/04/14 11:03:21;;;;;;;13.80;6.40;;;;;;;15.77;38.46;103169.53;6162242;23;20016;-83
2021/04/14 11:05:56;;;;;;;9.95;6.97;;;;;;;13.35;41.91;103181.50;6159280;23;20072;-83
2021/04/14 11:08:24;;;;;;;8.20;5.82;;;;;;;12.51;42.63;103175.84;6153424;23;20005;-81
2021/04/14 11:10:51;;;;;;;9.77;6.20;;;;;;;12.19;41.89;103165.72;6151756;23;20005;-82
2021/04/14 11:13:20;;;;;;;9.55;5.82;;;;;;;11.29;41.49;103175.59;6156309;23;20442;-81
2021/04/14 11:15:48;;;;;;;7.68;5.65;;;;;;;11.09;42.41;103177.59;6155466;23;20016;-81
2021/04/14 11:18:16;;;;;;;13.18;5.60;;;;;;;10.72;43.84;103175.25;6158586;23;20016;-81
2021/04/14 11:20:58;;;;;;;8.10;4.95;;;;;;;11.46;42.46;103169.28;6161396;23;20000;-82
2021/04/14 11:23:28;;;;;;;10.20;5.35;;;;;;;10.85;44.01;103173.41;6185634;23;20020;-80
2021/04/14 11:26:07;;;;;;;7.28;4.53;;;;;;;10.63;45.62;103175.34;6161181;23;20044;-82
2021/04/14 11:28:45;;;;;;;6.38;4.75;;;;;;;9.99;54.31;103178.34;6190533;23;20005;-84
2021/04/14 11:31:13;;;;;;;11.50;4.45;;;;;;;9.27;59.73;103194.41;6158994;23;20055;-84
2021/04/14 11:33:42;;;;;;;9.35;4.22;;;;;;;8.96;60.14;103191.81;6158149;23;20005;-80
2021/04/14 11:36:27;;;;;;;11.57;4.35;;;;;;;8.56;63.40;103185.63;6185129;23;20060;-83
2021/04/14 11:39:11;;;;;;;12.40;4.53;;;;;;;8.36;65.46;103195.22;6162553;23;19993;-83
2021/04/14 11:41:45;;;;;;;6.32;3.90;;;;;;;8.53;64.08;103201.44;6159110;23;20123;-83
2021/04/14 11:44:35;;;;;;;6.65;4.82;;;;;;;8.84;63.59;103198.84;6157746;23;20593;-81